createdAt,value
2022-10-08T00:03:42.761Z,0
2022-10-08T00:09:05.382Z,0
2022-10-08T00:14:28.289Z,0
2022-10-08T00:20:01.210Z,0
2022-10-08T00:25:23.829Z,0
2022-10-08T00:30:46.999Z,0
2022-10-08T00:36:15.391Z,0
2022-10-08T00:41:37.920Z,0
2022-10-08T00:47:00.436Z,0
2022-10-08T00:52:23.182Z,0
2022-10-08T00:57:45.572Z,0
2022-10-08T01:03:08.584Z,0
2022-10-08T01:08:31.569Z,0
2022-10-08T01:13:54.314Z,0
2022-10-08T01:19:16.977Z,0
2022-10-08T01:24:39.690Z,0
2022-10-08T01:30:02.775Z,0
2022-10-08T01:35:25.634Z,0
2022-10-08T01:40:56.252Z,0
2022-10-08T01:46:18.887Z,0
2022-10-08T01:51:41.738Z,0
2022-10-08T01:57:10.401Z,0
2022-10-08T02:02:32.968Z,0
2022-10-08T02:08:05.278Z,0
2022-10-08T02:13:27.798Z,0
2022-10-08T02:18:50.370Z,0
2022-10-08T02:24:13.157Z,0
2022-10-08T02:29:35.705Z,0
2022-10-08T02:35:00.990Z,0
2022-10-08T02:40:23.417Z,0
2022-10-08T02:45:46.072Z,0
2022-10-08T02:51:08.795Z,0
2022-10-08T02:56:31.971Z,0
2022-10-08T03:01:58.012Z,0
2022-10-08T03:07:20.889Z,0
2022-10-08T03:12:46.889Z,0
2022-10-08T03:18:10.611Z,0
2022-10-08T03:23:33.193Z,0
2022-10-08T03:28:58.402Z,0
2022-10-08T03:34:21.037Z,0
2022-10-08T03:45:06.147Z,0
2022-10-08T03:50:28.500Z,0
2022-10-08T03:55:50.753Z,0
2022-10-08T04:01:34.423Z,0
2022-10-08T04:06:57.445Z,0
2022-10-08T04:12:22.947Z,0
2022-10-08T04:17:48.381Z,0
2022-10-08T04:23:10.872Z,0
2022-10-08T04:28:37.673Z,0
2022-10-08T04:34:11.654Z,0
2022-10-08T04:39:33.893Z,0
2022-10-08T04:44:56.557Z,0
2022-10-08T04:50:21.936Z,0
2022-10-08T04:55:44.669Z,0
2022-10-08T05:01:06.922Z,0
2022-10-08T05:06:29.640Z,0
2022-10-08T05:11:52.423Z,0
2022-10-08T05:17:15.109Z,0
2022-10-08T05:22:37.462Z,0
2022-10-08T05:27:59.856Z,0
2022-10-08T05:33:25.366Z,0
2022-10-08T05:44:13.441Z,0
2022-10-08T05:49:36.034Z,0
2022-10-08T05:54:58.546Z,0.1
2022-10-08T06:00:23.275Z,0
2022-10-08T06:05:53.356Z,0.1
2022-10-08T06:11:29.474Z,0.1
2022-10-08T06:16:52.106Z,0.1
2022-10-08T06:22:14.509Z,0.1
2022-10-08T06:27:36.984Z,0.1
2022-10-08T06:33:02.523Z,0.1
2022-10-08T06:38:25.182Z,0.1
2022-10-08T06:43:49.946Z,0.1
2022-10-08T06:49:13.209Z,0.2
2022-10-08T06:54:35.931Z,0.1
2022-10-08T06:59:58.626Z,0.1
2022-10-08T07:05:21.192Z,0.3
2022-10-08T07:10:44.621Z,0.1
2022-10-08T07:16:10.234Z,0.4
2022-10-08T07:21:33.378Z,0.3
2022-10-08T07:26:55.596Z,0.3
2022-10-08T07:32:17.998Z,0.5
2022-10-08T07:37:41.222Z,1.6
2022-10-08T07:43:04.232Z,1.5
2022-10-08T07:48:33.762Z,1.1
2022-10-08T07:54:01.515Z,1.3
2022-10-08T07:59:29.016Z,1.1
2022-10-08T08:04:51.907Z,2.3
2022-10-08T08:10:16.984Z,1.1
2022-10-08T08:15:39.166Z,3.5
2022-10-08T08:21:02.173Z,4.1
2022-10-08T08:26:26.025Z,1.8
2022-10-08T08:31:48.636Z,4.8
2022-10-08T08:37:11.483Z,5.6
2022-10-08T08:42:33.001Z,0.5
2022-10-08T08:47:57.998Z,1.2
2022-10-08T08:53:20.432Z,2.6
2022-10-08T08:58:45.247Z,2.2
2022-10-08T09:04:08.059Z,1.2
2022-10-08T09:09:29.832Z,1.5
2022-10-08T09:14:57.623Z,1
2022-10-08T09:20:19.051Z,1.2
2022-10-08T09:25:49.062Z,1.3
2022-10-08T09:31:12.294Z,9.5
2022-10-08T09:36:46.901Z,8.1
2022-10-08T09:48:24.858Z,7.2
2022-10-08T09:53:49.597Z,6.9
2022-10-08T09:59:12.906Z,6.9
2022-10-08T10:04:36.159Z,7.3
2022-10-08T10:09:58.161Z,6.2
2022-10-08T10:15:20.146Z,5.6
2022-10-08T10:20:44.335Z,6.2
2022-10-08T10:26:07.344Z,6
2022-10-08T10:31:30.407Z,1.7
2022-10-08T10:36:49.782Z,1.1
2022-10-08T10:42:13.756Z,0.5
2022-10-08T10:47:35.470Z,0.5
2022-10-08T10:52:57.706Z,0.4
2022-10-08T10:58:19.905Z,4.6
2022-10-08T11:03:45.819Z,5.1
2022-10-08T11:09:09.141Z,2.9
2022-10-08T11:14:41.399Z,2.4
2022-10-08T11:20:04.165Z,7.1
2022-10-08T11:25:27.892Z,6
2022-10-08T11:30:47.378Z,0.9
2022-10-08T11:36:08.930Z,0.5
2022-10-08T11:41:30.709Z,0.5
2022-10-08T11:46:55.342Z,5.3
2022-10-08T11:52:23.024Z,6.3
2022-10-08T11:58:07.027Z,4.3
2022-10-08T12:03:31.651Z,1.5
2022-10-08T12:08:54.031Z,6.8
2022-10-08T12:14:15.446Z,3.3
2022-10-08T12:19:40.904Z,6.1
2022-10-08T12:25:04.970Z,5.5
2022-10-08T12:30:25.103Z,5.3
2022-10-08T12:35:51.459Z,0.9
2022-10-08T12:41:14.801Z,5.6
2022-10-08T12:46:59.473Z,0.6
2022-10-08T12:52:19.476Z,0.4
2022-10-08T12:57:43.429Z,0.5
2022-10-08T13:03:07.376Z,4.4
2022-10-08T13:08:31.720Z,4.3
2022-10-08T13:13:58.272Z,4.1
2022-10-08T13:19:32.932Z,4.1
2022-10-08T13:24:55.966Z,4
2022-10-08T13:30:18.685Z,3.9
2022-10-08T13:35:41.513Z,4.1
2022-10-08T13:41:10.907Z,4.3
2022-10-08T13:46:34.127Z,3.8
2022-10-08T13:51:57.248Z,3.7
2022-10-08T13:57:22.853Z,3.9
2022-10-08T14:02:52.270Z,3.7
2022-10-08T14:08:14.712Z,3.7
2022-10-08T14:13:37.164Z,3.4
2022-10-08T14:18:59.646Z,3.7
2022-10-08T14:24:29.122Z,3.9
2022-10-08T14:29:51.986Z,3.2
2022-10-08T14:35:14.107Z,3
2022-10-08T14:41:57.296Z,2.5
2022-10-08T14:47:20.732Z,0.7
2022-10-08T14:52:44.429Z,0.5
2022-10-08T14:58:14.517Z,0.3
2022-10-08T15:03:54.141Z,0.2
2022-10-08T15:09:37.772Z,0.2
2022-10-08T15:15:00.199Z,0.2
2022-10-08T15:20:22.658Z,0.2
2022-10-08T15:25:48.126Z,0.2
2022-10-08T15:31:20.086Z,0.2
2022-10-08T15:36:42.816Z,0.2
2022-10-08T15:42:05.958Z,0.2
2022-10-08T15:47:31.426Z,0.2
2022-10-08T15:52:53.945Z,0.1
2022-10-08T15:58:32.761Z,0.1
2022-10-08T16:04:14.317Z,0.1
2022-10-08T16:09:36.910Z,0.1
2022-10-08T16:15:02.038Z,0.1
2022-10-08T16:20:24.663Z,0.1
2022-10-08T16:25:47.524Z,0.1
2022-10-08T16:31:10.184Z,0.1
2022-10-08T17:25:40.052Z,0
2022-10-08T17:36:30.980Z,0
2022-10-08T17:41:53.557Z,0
2022-10-08T17:58:05.446Z,0
2022-10-08T18:03:27.766Z,0
2022-10-08T18:08:50.721Z,0
2022-10-08T18:24:51.372Z,0
2022-10-08T18:30:16.036Z,0
2022-10-08T18:35:38.800Z,0
2022-10-08T18:46:12.018Z,0
2022-10-08T18:51:35.020Z,0
2022-10-08T18:56:58.397Z,0
2022-10-08T19:02:23.003Z,0
2022-10-08T19:07:47.500Z,0
2022-10-08T19:13:09.929Z,0
2022-10-08T19:18:32.540Z,0
2022-10-08T19:23:55.562Z,0
2022-10-08T19:29:18.313Z,0
2022-10-08T19:34:41.058Z,0
2022-10-08T19:40:03.691Z,0
2022-10-08T19:45:26.577Z,0
2022-10-08T19:50:52.238Z,0
2022-10-08T19:56:18.352Z,0
2022-10-08T20:01:41.511Z,0
2022-10-08T20:07:05.320Z,0
2022-10-08T20:12:32.326Z,0
2022-10-08T20:17:55.166Z,0
2022-10-08T20:23:19.640Z,0
2022-10-08T20:28:42.221Z,0
2022-10-08T20:34:05.289Z,0
2022-10-08T20:39:27.908Z,0
2022-10-08T20:44:50.895Z,0
2022-10-08T20:50:14.027Z,0
2022-10-08T20:55:36.929Z,0
2022-10-08T21:00:59.300Z,0
2022-10-08T21:06:22.302Z,0
2022-10-08T21:11:44.728Z,0
2022-10-08T21:17:10.092Z,0
2022-10-08T21:22:32.556Z,0
2022-10-08T21:27:55.116Z,0
2022-10-08T21:33:21.064Z,0
2022-10-08T21:38:43.805Z,0
2022-10-08T21:44:06.398Z,0
2022-10-08T21:49:46.927Z,0
2022-10-08T21:55:10.101Z,0
2022-10-08T22:00:54.432Z,0
2022-10-08T22:06:21.848Z,0
2022-10-08T22:17:14.229Z,0
2022-10-08T22:22:37.210Z,0
2022-10-08T22:27:59.601Z,0
2022-10-08T22:33:22.280Z,0
2022-10-08T22:38:44.619Z,0
2022-10-08T22:44:28.219Z,0
2022-10-08T22:49:51.052Z,0
2022-10-08T22:55:13.326Z,0
2022-10-08T23:00:35.795Z,0
2022-10-08T23:06:00.715Z,0
2022-10-08T23:11:23.241Z,0
2022-10-08T23:16:53.556Z,0
2022-10-08T23:22:16.480Z,0
2022-10-08T23:27:38.740Z,0
2022-10-08T23:33:01.022Z,0
2022-10-08T23:38:23.573Z,0
2022-10-08T23:43:46.159Z,0
2022-10-08T23:49:16.050Z,0
2022-10-08T23:54:38.580Z,0
